Terminal Aerodrome Forecast
Issued by NWS

Home | Current Version | Previous Version | Text Only | Print | Product List | Glossary On
Versions: 1 2 3 4 5 6 7 8 9 10 11 12 13 14 15 16 17 18
000
FTAK31 PAJN 182300
TAFAKT
TAF
PAKT 182322Z 1900/1924 14018G28KT 4SM RA BR OVC010 WS020/15045KT
     FM190300 14012KT P6SM -RA SCT015 OVC035
     FM191300 14007KT P6SM -SHRA SCT025 OVC040
     FM191800 14011G18KT P6SM -SHRA SCT025 OVC040
     FM192200 14009KT P6SM -SHRA SCT025 OVC040
      AMD LTD TO CLD VIS AND WIND 1906/1915=

USA.gov is the U.S. government's official web portal to all federal, state and local government web resources and services.